Time;durP1;ratioP1;P1;durP2;ratioP2;P2;SDS_P1;SDS_P2;PMS_P1;PMS_P2;Temp;Humidity;BMP_temperature;BMP_pressure;BME280_temperature;BME280_humidity;BME280_pressure;Samples;Min_cycle;Max_cycle;Signal;HPM_P1;HPM_P2
2022/03/10 00:00:28;;;;;;;16.43;13.67;;;-0.10;99.90;;;;;;5050363;28;20560;-48
2022/03/10 00:02:55;;;;;;;19.00;14.57;;;-0.10;99.90;;;;;;5051962;28;20462;-47
2022/03/10 00:05:21;;;;;;;19.00;14.30;;;-0.20;99.90;;;;;;5048338;28;20523;-48
2022/03/10 00:07:48;;;;;;;18.47;14.93;;;-0.10;99.90;;;;;;5045295;28;20536;-48
2022/03/10 00:10:15;;;;;;;15.90;13.63;;;-0.10;99.90;;;;;;5053239;28;20485;-48
2022/03/10 00:12:48;;;;;;;22.33;13.60;;;-0.20;99.90;;;;;;5052261;28;20989;-48
2022/03/10 00:15:17;;;;;;;20.00;15.13;;;-0.20;99.90;;;;;;5053272;28;20524;-47
2022/03/10 00:17:44;;;;;;;19.67;14.13;;;-0.20;99.90;;;;;;5050824;28;20496;-47
2022/03/10 00:20:12;;;;;;;17.30;14.77;;;-0.20;99.90;;;;;;5042670;28;21031;-48
2022/03/10 00:22:49;;;;;;;19.97;14.73;;;-0.20;99.90;;;;;;5042373;28;20614;-48
2022/03/10 00:25:16;;;;;;;19.87;15.20;;;-0.20;99.90;;;;;;5045031;28;20493;-48
2022/03/10 00:27:43;;;;;;;19.07;14.10;;;-0.30;99.90;;;;;;5050755;28;20564;-49
2022/03/10 00:30:10;;;;;;;19.73;14.83;;;-0.30;99.90;;;;;;5052532;28;20537;-48
2022/03/10 00:32:43;;;;;;;19.63;14.90;;;-0.30;99.90;;;;;;5050440;28;20563;-47
2022/03/10 00:35:11;;;;;;;16.80;14.80;;;-0.30;99.90;;;;;;5047579;28;20565;-48
2022/03/10 00:37:38;;;;;;;19.00;14.40;;;-0.30;99.90;;;;;;5048970;28;20564;-48
2022/03/10 00:40:06;;;;;;;20.23;15.70;;;-0.40;99.90;;;;;;5050812;28;20892;-49
2022/03/10 00:42:37;;;;;;;24.33;14.90;;;-0.40;99.90;;;;;;5052567;28;20504;-48
2022/03/10 00:45:03;;;;;;;18.23;14.80;;;-0.40;99.90;;;;;;5051832;28;20465;-47
2022/03/10 00:47:30;;;;;;;17.00;15.00;;;-0.40;99.90;;;;;;5050161;28;21057;-49
2022/03/10 00:49:58;;;;;;;21.03;14.60;;;-0.50;99.90;;;;;;5046859;28;20457;-48
2022/03/10 00:52:25;;;;;;;22.80;16.23;;;-0.50;99.90;;;;;;5048066;28;20540;-48
2022/03/10 00:54:51;;;;;;;19.50;15.17;;;-0.50;99.90;;;;;;5044169;28;20866;-48
2022/03/10 00:57:18;;;;;;;20.53;14.83;;;-0.50;99.90;;;;;;5037732;28;20564;-48
2022/03/10 00:59:44;;;;;;;18.63;14.50;;;-0.50;99.90;;;;;;5043520;28;20553;-48
2022/03/10 01:02:11;;;;;;;16.17;13.57;;;-0.50;99.90;;;;;;5039178;28;20566;-48
2022/03/10 01:04:37;;;;;;;18.17;14.87;;;-0.60;99.90;;;;;;5044922;28;20545;-49
2022/03/10 01:07:05;;;;;;;18.83;16.50;;;-0.50;99.90;;;;;;5048275;28;20569;-48
2022/03/10 01:09:32;;;;;;;17.40;15.03;;;-0.60;99.90;;;;;;5050622;28;20533;-48
2022/03/10 01:11:59;;;;;;;24.27;16.47;;;-0.60;99.90;;;;;;5049614;28;20887;-48
2022/03/10 01:14:25;;;;;;;22.20;15.30;;;-0.50;99.90;;;;;;5052088;28;20525;-49
2022/03/10 01:16:52;;;;;;;21.83;16.63;;;-0.50;99.90;;;;;;5046128;28;22106;-48
2022/03/10 01:19:18;;;;;;;21.70;16.63;;;-0.60;99.90;;;;;;5048804;28;20501;-48
2022/03/10 01:21:45;;;;;;;20.10;15.97;;;-0.60;99.90;;;;;;5048180;28;20557;-48
2022/03/10 01:24:13;;;;;;;21.67;16.97;;;-0.60;99.90;;;;;;5048702;28;20575;-48
2022/03/10 01:26:39;;;;;;;21.93;16.47;;;-0.60;99.90;;;;;;5051345;28;21023;-49
2022/03/10 01:29:06;;;;;;;17.50;15.60;;;-0.70;99.90;;;;;;5047459;28;20581;-49
2022/03/10 01:31:32;;;;;;;23.50;16.17;;;-0.70;99.90;;;;;;5037716;28;20467;-49
2022/03/10 01:33:59;;;;;;;20.40;16.60;;;-0.70;99.90;;;;;;5040409;28;20533;-48
2022/03/10 01:36:26;;;;;;;20.83;15.03;;;-0.70;99.90;;;;;;5049944;28;20472;-48
2022/03/10 01:38:52;;;;;;;21.13;15.30;;;-0.80;94.80;;;;;;5049231;28;20556;-48
2022/03/10 01:41:20;;;;;;;21.90;18.00;;;-0.80;99.90;;;;;;5046440;28;20577;-48
2022/03/10 01:43:56;;;;;;;28.83;17.00;;;-0.80;99.90;;;;;;5051806;28;20489;-48
2022/03/10 01:46:23;;;;;;;27.47;17.70;;;-0.80;99.90;;;;;;5055127;28;20453;-47
2022/03/10 01:48:50;;;;;;;21.80;16.50;;;-0.80;99.90;;;;;;5052592;28;20485;-48
2022/03/10 01:51:18;;;;;;;20.83;15.30;;;-0.80;99.90;;;;;;5055355;28;20469;-49
2022/03/10 01:53:44;;;;;;;21.90;16.57;;;-0.80;99.90;;;;;;5051612;28;20444;-49
2022/03/10 01:56:11;;;;;;;27.80;17.43;;;-0.80;99.90;;;;;;5045487;28;20482;-49
2022/03/10 01:58:40;;;;;;;23.60;17.13;;;-0.90;99.90;;;;;;5053839;28;20557;-49
2022/03/10 02:01:08;;;;;;;28.33;16.60;;;-0.90;99.90;;;;;;5058913;28;20552;-49
2022/03/10 02:03:35;;;;;;;22.03;16.87;;;-1.00;99.90;;;;;;5055037;28;20537;-49
2022/03/10 02:06:02;;;;;;;24.17;17.83;;;-1.00;93.40;;;;;;5054704;28;20552;-50
2022/03/10 02:11:13;;;;;;;19.40;16.40;;;-1.00;89.70;;;;;;5052038;28;20809;-49
2022/03/10 02:13:41;;;;;;;22.73;16.83;;;-1.00;91.20;;;;;;5059061;28;20484;-48
2022/03/10 02:18:54;;;;;;;23.13;16.53;;;-1.00;89.90;;;;;;5053992;28;20473;-51
2022/03/10 02:21:21;;;;;;;21.67;16.20;;;-1.10;87.70;;;;;;5053089;28;20493;-49
2022/03/10 02:23:49;;;;;;;23.60;17.57;;;-1.00;83.50;;;;;;5053530;28;20556;-49
2022/03/10 02:26:16;;;;;;;21.30;16.20;;;-1.00;86.00;;;;;;5056578;28;20478;-48
2022/03/10 02:28:43;;;;;;;27.43;17.40;;;-1.10;85.10;;;;;;5054095;28;20585;-50
2022/03/10 02:31:10;;;;;;;21.67;17.70;;;-1.10;86.80;;;;;;5056399;28;20458;-49
2022/03/10 02:33:37;;;;;;;27.70;17.83;;;-1.20;82.80;;;;;;5056453;28;20560;-50
2022/03/10 02:36:05;;;;;;;22.23;16.77;;;-1.10;80.10;;;;;;5055200;28;20496;-49
2022/03/10 02:38:32;;;;;;;23.63;17.17;;;-1.10;79.50;;;;;;5056901;28;20489;-49
2022/03/10 02:41:00;;;;;;;20.50;16.33;;;-1.10;79.40;;;;;;5056227;28;20474;-47
2022/03/10 02:43:27;;;;;;;22.07;16.07;;;-1.10;79.40;;;;;;5053161;28;20909;-49
2022/03/10 02:45:53;;;;;;;22.80;16.33;;;-1.20;77.20;;;;;;5052494;28;20565;-48
2022/03/10 02:48:20;;;;;;;20.47;16.10;;;-1.20;76.20;;;;;;5050167;28;20482;-49
2022/03/10 02:50:47;;;;;;;25.80;17.30;;;-1.20;74.20;;;;;;5050495;28;20545;-48
2022/03/10 02:53:15;;;;;;;20.63;15.87;;;-1.20;77.80;;;;;;5045357;28;20489;-47
2022/03/10 02:55:42;;;;;;;20.93;16.00;;;-1.20;77.20;;;;;;5052628;28;20840;-48
2022/03/10 02:58:10;;;;;;;24.30;17.00;;;-1.10;75.90;;;;;;5052747;28;20599;-48
2022/03/10 03:00:36;;;;;;;20.13;16.37;;;-1.20;76.60;;;;;;5050491;28;20498;-48
2022/03/10 03:03:03;;;;;;;25.27;18.03;;;-1.10;77.70;;;;;;5052974;28;20481;-48
2022/03/10 03:05:30;;;;;;;19.00;14.90;;;-1.20;79.90;;;;;;5049601;28;21008;-48
2022/03/10 03:07:57;;;;;;;21.23;16.90;;;-1.20;80.70;;;;;;5051888;28;20486;-48
2022/03/10 03:10:23;;;;;;;23.50;17.60;;;-1.20;78.90;;;;;;5053883;28;20441;-48
2022/03/10 03:12:51;;;;;;;24.10;17.53;;;-1.20;76.20;;;;;;5054017;28;20815;-48
2022/03/10 03:15:20;;;;;;;22.73;16.37;;;-1.20;75.90;;;;;;5052754;28;20544;-48
2022/03/10 03:17:47;;;;;;;23.27;16.73;;;-1.30;78.90;;;;;;5047938;28;21026;-50
2022/03/10 03:20:15;;;;;;;24.67;16.57;;;-1.30;76.00;;;;;;5047526;28;20845;-48
2022/03/10 03:22:42;;;;;;;32.73;16.27;;;-1.30;74.90;;;;;;5049493;28;20458;-48
2022/03/10 03:25:10;;;;;;;21.40;16.77;;;-1.30;75.10;;;;;;5047897;28;20490;-49
2022/03/10 03:27:36;;;;;;;20.67;15.63;;;-1.30;74.10;;;;;;5038974;28;20473;-48
2022/03/10 03:30:04;;;;;;;21.47;17.00;;;-1.30;78.20;;;;;;5051870;28;20884;-48
2022/03/10 03:32:32;;;;;;;21.50;17.03;;;-1.30;77.90;;;;;;5053496;28;20460;-47
2022/03/10 03:34:59;;;;;;;24.30;17.40;;;-1.30;83.90;;;;;;5053057;28;20470;-47
2022/03/10 03:37:26;;;;;;;23.03;17.70;;;-1.40;86.50;;;;;;5051712;28;20481;-48
2022/03/10 03:39:52;;;;;;;24.30;17.90;;;-1.40;78.40;;;;;;5051427;28;20548;-48
2022/03/10 03:42:19;;;;;;;21.10;17.07;;;-1.40;80.20;;;;;;5052168;28;20465;-48
2022/03/10 03:44:45;;;;;;;27.47;17.00;;;-1.40;79.80;;;;;;5053493;28;20465;-48
2022/03/10 03:47:12;;;;;;;22.67;17.10;;;-1.40;78.10;;;;;;5055421;28;20449;-48
2022/03/10 03:49:40;;;;;;;20.93;16.10;;;-1.40;78.30;;;;;;5053022;28;20512;-49
2022/03/10 03:52:06;;;;;;;26.83;16.53;;;-1.40;87.40;;;;;;5053656;28;20477;-49
2022/03/10 03:54:33;;;;;;;19.67;16.10;;;-1.40;90.40;;;;;;5050344;28;20467;-49
2022/03/10 03:56:59;;;;;;;23.57;16.67;;;-1.40;89.50;;;;;;5044732;28;20482;-48
2022/03/10 03:59:26;;;;;;;20.50;15.90;;;-1.40;92.70;;;;;;5050206;28;20872;-48
2022/03/10 04:01:53;;;;;;;22.47;16.10;;;-1.40;93.60;;;;;;5050175;28;21028;-47
2022/03/10 04:04:21;;;;;;;23.00;16.80;;;-1.50;92.80;;;;;;5053495;28;20473;-49
2022/03/10 04:06:49;;;;;;;23.30;17.17;;;-1.50;87.70;;;;;;5050717;28;20466;-48
2022/03/10 04:09:16;;;;;;;21.80;16.37;;;-1.60;73.30;;;;;;5052422;28;20477;-48
2022/03/10 04:11:43;;;;;;;18.70;15.23;;;-1.60;73.40;;;;;;5051513;28;20828;-48
2022/03/10 04:14:11;;;;;;;19.37;16.60;;;-1.60;76.40;;;;;;5051221;28;20498;-48
2022/03/10 04:16:38;;;;;;;22.63;16.70;;;-1.50;75.30;;;;;;5052681;28;20541;-48
2022/03/10 04:19:05;;;;;;;21.07;15.40;;;-1.60;74.70;;;;;;5052177;28;20474;-47
2022/03/10 04:21:32;;;;;;;20.97;16.47;;;-1.60;71.40;;;;;;5046659;28;20458;-47
2022/03/10 04:24:00;;;;;;;20.00;17.53;;;-1.60;71.40;;;;;;5043458;28;20496;-48
2022/03/10 04:26:27;;;;;;;24.40;16.80;;;-1.60;74.60;;;;;;5042627;28;20462;-48
2022/03/10 04:28:53;;;;;;;19.17;16.70;;;-1.60;75.00;;;;;;5049644;28;20546;-48
2022/03/10 04:31:20;;;;;;;21.83;16.60;;;-1.50;71.30;;;;;;5052709;28;20478;-48
2022/03/10 04:33:47;;;;;;;20.13;16.13;;;-1.50;74.30;;;;;;5051847;28;20557;-48
2022/03/10 04:36:13;;;;;;;21.83;14.70;;;-1.50;74.00;;;;;;5047553;28;20469;-49
2022/03/10 04:38:40;;;;;;;19.77;15.20;;;-1.50;77.90;;;;;;5050288;28;20478;-49
2022/03/10 04:41:08;;;;;;;23.07;16.50;;;-1.60;83.40;;;;;;5050303;28;20478;-48
2022/03/10 04:43:34;;;;;;;22.97;16.63;;;-1.60;83.20;;;;;;5048021;28;20493;-48
2022/03/10 04:46:03;;;;;;;22.03;15.90;;;-1.60;75.40;;;;;;5051982;28;20956;-48
2022/03/10 04:48:29;;;;;;;22.53;16.80;;;-1.60;72.30;;;;;;5051028;28;20481;-48
2022/03/10 04:50:56;;;;;;;22.50;16.13;;;-1.60;64.70;;;;;;5050512;28;20561;-48
2022/03/10 04:53:23;;;;;;;21.13;16.03;;;-1.60;62.80;;;;;;5052151;28;20822;-48
2022/03/10 04:55:49;;;;;;;24.37;16.43;;;-1.60;59.50;;;;;;5050124;28;20560;-49
2022/03/10 04:58:17;;;;;;;19.90;15.23;;;-1.70;62.10;;;;;;5049323;28;20469;-48
2022/03/10 05:00:44;;;;;;;21.20;14.70;;;-1.70;60.70;;;;;;5049954;28;20552;-48
2022/03/10 05:03:10;;;;;;;20.03;15.60;;;-1.70;54.00;;;;;;5042962;22;20573;-50
2022/03/10 05:05:37;;;;;;;20.57;15.73;;;-1.60;52.70;;;;;;5030793;28;20467;-50
2022/03/10 05:08:04;;;;;;;21.17;17.03;;;-1.60;54.80;;;;;;5031083;28;20513;-51
2022/03/10 05:10:31;;;;;;;21.20;15.97;;;-1.60;54.30;;;;;;5032565;28;20443;-49
2022/03/10 05:13:00;;;;;;;24.07;17.40;;;-1.60;55.70;;;;;;5031759;28;20574;-50
2022/03/10 05:15:31;;;;;;;20.13;15.40;;;-1.50;57.20;;;;;;5031029;28;20455;-51
2022/03/10 05:17:58;;;;;;;22.00;17.00;;;-1.50;57.50;;;;;;5030143;28;20470;-51
2022/03/10 05:20:25;;;;;;;19.93;15.50;;;-1.50;61.00;;;;;;5030956;28;20516;-51
2022/03/10 05:22:54;;;;;;;22.20;15.70;;;-1.40;68.20;;;;;;5026763;28;20501;-52
2022/03/10 05:25:22;;;;;;;20.70;16.07;;;-1.40;73.90;;;;;;5031016;28;20497;-50
2022/03/10 05:27:50;;;;;;;26.37;17.80;;;-1.50;73.30;;;;;;5024876;28;20452;-50
2022/03/10 05:30:18;;;;;;;21.30;15.53;;;-1.50;71.30;;;;;;5031487;28;20503;-50
2022/03/10 05:32:46;;;;;;;22.00;15.67;;;-1.50;64.50;;;;;;5031103;28;20569;-50
2022/03/10 05:35:15;;;;;;;19.77;16.00;;;-1.50;66.20;;;;;;5028729;28;20462;-51
2022/03/10 05:37:44;;;;;;;20.57;16.57;;;-1.50;63.70;;;;;;5030970;28;20451;-51
2022/03/10 05:40:13;;;;;;;20.60;16.20;;;-1.50;60.50;;;;;;5029782;28;20480;-51
2022/03/10 05:42:41;;;;;;;22.70;16.77;;;-1.50;59.90;;;;;;5029637;28;20483;-50
2022/03/10 05:45:09;;;;;;;24.17;17.30;;;-1.40;61.20;;;;;;5030497;28;20494;-51
2022/03/10 05:47:36;;;;;;;26.20;16.57;;;-1.50;64.50;;;;;;5030193;28;20463;-50
2022/03/10 05:50:05;;;;;;;21.90;16.60;;;-1.40;65.40;;;;;;5028993;28;21247;-51
2022/03/10 05:52:33;;;;;;;23.95;16.40;;;-1.40;62.30;;;;;;5019156;28;20876;-51
2022/03/10 05:54:59;;;;;;;21.97;16.73;;;-1.30;65.10;;;;;;5023798;28;20752;-51
2022/03/10 05:57:26;;;;;;;27.37;16.93;;;-1.30;68.90;;;;;;5024507;28;21001;-50
2022/03/10 05:59:53;;;;;;;21.40;15.87;;;-1.20;71.40;;;;;;5018879;28;20455;-51
2022/03/10 06:02:20;;;;;;;22.43;16.60;;;-1.20;71.70;;;;;;5023203;28;20529;-52
2022/03/10 06:04:46;;;;;;;20.40;16.07;;;-1.10;75.50;;;;;;5022951;28;20601;-51
2022/03/10 06:07:14;;;;;;;24.10;15.80;;;-1.10;80.10;;;;;;5022815;28;20546;-52
2022/03/10 06:09:41;;;;;;;25.20;17.30;;;-1.10;87.00;;;;;;5022556;28;20590;-52
2022/03/10 06:12:08;;;;;;;21.93;16.87;;;-1.10;83.20;;;;;;5023919;28;20590;-52
2022/03/10 06:14:35;;;;;;;21.03;15.70;;;-1.10;87.40;;;;;;5023686;28;20462;-52
2022/03/10 06:17:02;;;;;;;20.80;16.47;;;-1.00;88.10;;;;;;5027068;28;20466;-51
2022/03/10 06:19:29;;;;;;;20.73;16.50;;;-1.00;92.40;;;;;;5022990;28;20550;-52
2022/03/10 06:21:55;;;;;;;23.40;16.37;;;-1.00;91.90;;;;;;5025631;28;20573;-52
2022/03/10 06:24:24;;;;;;;19.70;16.33;;;-0.90;88.20;;;;;;5028923;28;20486;-52
2022/03/10 06:26:50;;;;;;;24.53;16.77;;;-0.90;91.70;;;;;;5021788;28;20462;-51
2022/03/10 06:29:17;;;;;;;25.33;17.43;;;-0.80;87.90;;;;;;5027434;28;20569;-51
2022/03/10 06:31:43;;;;;;;21.87;16.27;;;-0.70;89.70;;;;;;5027922;28;20506;-51
2022/03/10 06:34:10;;;;;;;23.77;16.50;;;-0.60;97.80;;;;;;5033245;28;20508;-52
2022/03/10 06:36:37;;;;;;;24.90;16.83;;;-0.50;97.10;;;;;;5033015;28;20466;-52
2022/03/10 06:39:03;;;;;;;23.50;17.40;;;-0.40;99.90;;;;;;5031313;28;20582;-52
2022/03/10 06:41:31;;;;;;;26.83;18.23;;;-0.30;99.90;;;;;;5030226;28;20928;-52
2022/03/10 06:43:58;;;;;;;21.43;17.33;;;-0.10;99.90;;;;;;5032820;28;20497;-51
2022/03/10 06:46:25;;;;;;;23.47;17.37;;;0.00;99.90;;;;;;5030073;28;20546;-51
2022/03/10 06:48:51;;;;;;;28.77;17.43;;;0.10;99.90;;;;;;5030287;28;20501;-51
2022/03/10 06:51:18;;;;;;;32.90;18.67;;;0.20;99.90;;;;;;5030437;28;20549;-51
2022/03/10 06:53:44;;;;;;;26.30;17.73;;;0.20;99.90;;;;;;5025142;28;20462;-50
2022/03/10 06:56:11;;;;;;;23.23;16.73;;;0.40;99.90;;;;;;5030770;28;21768;-52
2022/03/10 06:58:40;;;;;;;19.90;16.27;;;0.50;99.90;;;;;;5027021;28;21019;-51
2022/03/10 07:01:06;;;;;;;24.53;17.30;;;0.60;99.90;;;;;;5023479;28;20487;-51
2022/03/10 07:03:33;;;;;;;29.60;18.83;;;0.70;99.90;;;;;;5030767;28;20521;-51
2022/03/10 07:05:59;;;;;;;26.00;18.33;;;0.90;99.90;;;;;;5030620;28;20552;-51
2022/03/10 07:08:26;;;;;;;28.70;20.20;;;1.10;99.90;;;;;;5026817;28;20459;-51
2022/03/10 07:10:53;;;;;;;29.40;19.20;;;1.40;99.90;;;;;;5031203;28;20511;-51
2022/03/10 07:13:20;;;;;;;38.00;19.00;;;1.70;99.90;;;;;;5032652;28;20479;-52
2022/03/10 07:15:47;;;;;;;29.33;19.63;;;2.00;99.90;;;;;;5028984;28;21466;-51
2022/03/10 07:18:14;;;;;;;37.43;20.17;;;2.30;99.90;;;;;;5030166;28;20563;-52
2022/03/10 07:20:40;;;;;;;26.97;18.93;;;2.50;99.90;;;;;;5026035;28;20562;-51
2022/03/10 07:23:07;;;;;;;43.47;21.23;;;2.60;99.90;;;;;;5025403;28;20503;-51
2022/03/10 07:25:34;;;;;;;39.13;21.40;;;2.90;99.90;;;;;;5025245;28;20494;-51
2022/03/10 07:28:00;;;;;;;33.30;20.70;;;3.10;99.90;;;;;;5029961;28;20542;-51
2022/03/10 07:30:27;;;;;;;29.90;20.00;;;3.50;99.90;;;;;;5029432;28;20529;-51
2022/03/10 07:32:55;;;;;;;51.83;21.03;;;3.90;31.50;;;;;;5028761;28;20514;-51
2022/03/10 07:35:22;;;;;;;39.27;21.13;;;3.80;38.50;;;;;;5024499;28;20547;-51
2022/03/10 07:37:49;;;;;;;34.17;19.10;;;4.00;35.50;;;;;;5030858;28;20537;-52
2022/03/10 07:40:16;;;;;;;28.73;20.07;;;3.90;32.70;;;;;;5026911;28;20828;-51
2022/03/10 07:42:43;;;;;;;38.10;21.10;;;3.90;32.20;;;;;;5026128;28;20903;-51
2022/03/10 07:45:10;;;;;;;38.87;22.10;;;3.80;33.00;;;;;;5030103;28;20594;-52
2022/03/10 07:47:37;;;;;;;36.10;19.43;;;3.90;30.70;;;;;;5025704;28;20496;-51
2022/03/10 07:50:07;;;;;;;31.60;20.03;;;4.00;26.70;;;;;;5024261;28;21083;-51
2022/03/10 07:52:34;;;;;;;33.17;20.20;;;4.10;24.50;;;;;;5025845;28;20487;-51
2022/03/10 07:55:01;;;;;;;32.87;19.60;;;4.20;28.10;;;;;;5028067;28;21248;-51
2022/03/10 07:57:28;;;;;;;31.87;19.27;;;4.20;24.90;;;;;;5027213;28;20506;-51
2022/03/10 07:59:54;;;;;;;31.97;20.07;;;4.40;21.50;;;;;;5031377;28;20462;-51
2022/03/10 08:02:21;;;;;;;36.57;18.90;;;4.50;28.40;;;;;;5023321;28;20578;-50
2022/03/10 08:04:48;;;;;;;30.33;19.77;;;4.70;26.50;;;;;;5030701;28;20459;-51
2022/03/10 08:07:16;;;;;;;35.47;21.27;;;4.90;25.10;;;;;;5028962;28;20501;-51
2022/03/10 08:09:42;;;;;;;45.30;19.83;;;5.00;32.60;;;;;;5026191;28;20530;-51
2022/03/10 08:12:09;;;;;;;32.07;21.67;;;5.40;31.90;;;;;;5024871;28;20525;-52
2022/03/10 08:14:36;;;;;;;34.53;19.80;;;5.70;46.10;;;;;;5027159;28;20494;-50
2022/03/10 08:17:03;;;;;;;41.97;21.00;;;6.10;55.90;;;;;;5021986;28;20550;-51
2022/03/10 08:19:29;;;;;;;39.03;21.13;;;6.10;60.70;;;;;;5024468;28;20537;-50
2022/03/10 08:21:56;;;;;;;37.93;21.20;;;6.40;67.00;;;;;;5028304;28;20573;-51
2022/03/10 08:24:25;;;;;;;39.53;22.10;;;6.40;71.20;;;;;;5023440;28;20537;-51
2022/03/10 08:26:52;;;;;;;30.93;20.63;;;6.70;74.60;;;;;;5018716;28;20462;-51
2022/03/10 08:29:19;;;;;;;35.10;21.97;;;6.70;69.10;;;;;;5017656;28;20586;-51
2022/03/10 08:31:47;;;;;;;31.17;19.90;;;7.00;82.00;;;;;;5024605;28;20856;-52
2022/03/10 08:34:16;;;;;;;30.53;19.43;;;7.40;85.80;;;;;;5025201;28;20459;-51
2022/03/10 08:36:42;;;;;;;34.80;21.90;;;7.70;96.60;;;;;;5022312;28;20455;-51
2022/03/10 08:39:09;;;;;;;36.37;18.43;;;6.80;89.00;;;;;;5027078;28;20483;-52
2022/03/10 08:41:36;;;;;;;36.70;20.50;;;7.10;89.30;;;;;;5026805;28;20533;-51
2022/03/10 08:44:04;;;;;;;32.90;20.80;;;6.80;83.90;;;;;;5020524;28;20554;-53
2022/03/10 08:46:31;;;;;;;33.27;21.00;;;6.70;84.10;;;;;;5020190;28;20568;-50
2022/03/10 08:48:58;;;;;;;26.77;18.80;;;7.10;84.30;;;;;;5026606;28;20458;-52
2022/03/10 08:51:25;;;;;;;35.30;20.93;;;7.80;93.30;;;;;;5030069;28;20518;-51
2022/03/10 08:53:51;;;;;;;29.57;19.27;;;7.90;99.90;;;;;;5030409;28;20459;-51
2022/03/10 08:56:18;;;;;;;26.13;18.90;;;8.10;99.90;;;;;;5030507;28;20526;-50
2022/03/10 08:58:46;;;;;;;29.93;17.97;;;8.70;99.90;;;;;;5031687;28;20482;-51
2022/03/10 09:01:12;;;;;;;30.07;19.77;;;8.60;99.90;;;;;;5025003;28;20562;-51
2022/03/10 09:03:39;;;;;;;30.83;19.70;;;9.20;99.90;;;;;;5029284;28;20570;-51
2022/03/10 09:06:07;;;;;;;28.63;19.83;;;10.30;99.90;;;;;;5020404;28;20472;-51
2022/03/10 09:08:34;;;;;;;27.30;18.60;;;11.20;99.90;;;;;;5028843;28;20469;-51
2022/03/10 09:11:00;;;;;;;31.97;19.20;;;10.80;99.90;;;;;;5030050;28;20483;-51
2022/03/10 09:13:28;;;;;;;28.60;20.17;;;11.50;99.90;;;;;;5022932;28;20518;-52
2022/03/10 09:15:56;;;;;;;29.13;18.60;;;12.00;99.90;;;;;;5029185;28;20466;-52
2022/03/10 09:18:23;;;;;;;29.83;19.97;;;12.40;99.90;;;;;;5031376;28;20465;-51
2022/03/10 09:20:49;;;;;;;31.53;18.10;;;11.60;99.90;;;;;;5026821;28;20457;-52
2022/03/10 09:23:16;;;;;;;27.20;19.10;;;11.10;99.90;;;;;;5029030;28;20506;-51
2022/03/10 09:25:42;;;;;;;33.10;19.13;;;11.80;1.40;;;;;;5025721;28;20486;-52
2022/03/10 09:28:10;;;;;;;33.20;20.83;;;11.30;99.90;;;;;;5026983;28;20493;-51
2022/03/10 09:30:37;;;;;;;37.67;21.00;;;11.90;99.90;;;;;;5029062;28;20494;-51
2022/03/10 09:33:04;;;;;;;40.73;19.80;;;11.40;99.90;;;;;;5030703;28;20557;-54
2022/03/10 09:35:31;;;;;;;33.17;19.30;;;11.80;99.90;;;;;;5026857;28;20494;-51
2022/03/10 09:37:57;;;;;;;29.17;19.60;;;10.90;99.90;;;;;;5030407;28;20561;-51
2022/03/10 09:40:24;;;;;;;31.23;18.40;;;10.80;99.90;;;;;;5022053;28;20483;-51
2022/03/10 09:42:51;;;;;;;27.50;19.33;;;10.80;99.90;;;;;;5022947;28;20571;-51
2022/03/10 09:45:19;;;;;;;28.13;18.90;;;10.20;99.90;;;;;;5033396;28;20465;-52
2022/03/10 09:47:47;;;;;;;29.17;19.00;;;10.50;99.90;;;;;;5032875;28;20873;-51
2022/03/10 09:50:17;;;;;;;31.17;19.60;;;10.10;99.90;;;;;;5034009;28;20565;-52
2022/03/10 09:52:45;;;;;;;29.53;18.37;;;9.90;99.90;;;;;;5021736;28;20478;-51
2022/03/10 09:55:13;;;;;;;27.80;17.80;;;11.00;99.90;;;;;;5027563;28;20528;-51
2022/03/10 09:57:42;;;;;;;27.60;17.40;;;10.80;99.90;;;;;;5030375;28;20467;-51
2022/03/10 10:00:11;;;;;;;29.13;17.70;;;11.30;99.90;;;;;;5028069;28;20840;-51
2022/03/10 10:02:40;;;;;;;35.20;19.13;;;12.00;99.90;;;;;;5025436;28;20482;-51
2022/03/10 10:05:24;;;;;;;29.07;17.63;;;10.90;99.90;;;;;;5029484;28;20455;-51
2022/03/10 10:08:06;;;;;;;31.93;18.93;;;11.00;99.90;;;;;;5023591;28;20954;-52
2022/03/10 10:10:34;;;;;;;22.77;16.60;;;11.40;99.90;;;;;;5032097;28;20846;-52
2022/03/10 10:13:05;;;;;;;28.00;16.87;;;11.20;99.90;;;;;;5026451;28;20486;-52
2022/03/10 10:15:34;;;;;;;26.37;18.20;;;11.00;99.90;;;;;;5027238;28;20450;-51
2022/03/10 10:18:01;;;;;;;37.10;22.30;;;11.60;99.90;;;;;;5033478;28;21050;-51
2022/03/10 10:20:33;;;;;;;23.10;16.33;;;11.40;99.90;;;;;;5032181;28;20470;-52
2022/03/10 10:23:18;;;;;;;24.70;16.47;;;12.20;99.90;;;;;;5033012;28;20569;-51
2022/03/10 10:25:57;;;;;;;29.97;16.73;;;13.10;99.90;;;;;;5030259;28;20470;-51
2022/03/10 10:28:28;;;;;;;25.20;16.73;;;13.30;99.90;;;;;;5029745;28;20490;-52
2022/03/10 10:31:03;;;;;;;28.63;17.20;;;12.70;99.90;;;;;;5026300;28;20478;-52
2022/03/10 10:33:31;;;;;;;25.20;18.70;;;12.20;99.90;;;;;;5029192;28;20512;-52
2022/03/10 10:36:13;;;;;;;24.07;17.00;;;11.90;99.90;;;;;;5028448;28;21127;-51
2022/03/10 10:38:41;;;;;;;20.03;15.27;;;12.60;99.90;;;;;;5031830;28;20529;-52
2022/03/10 10:41:23;;;;;;;20.70;16.20;;;12.60;99.90;;;;;;5032378;28;20490;-51
2022/03/10 10:43:52;;;;;;;21.27;17.03;;;12.30;99.90;;;;;;5032217;28;20531;-52
2022/03/10 10:46:23;;;;;;;22.23;17.03;;;12.30;99.90;;;;;;5029547;28;20568;-51
2022/03/10 10:48:50;;;;;;;23.23;16.33;;;11.70;99.90;;;;;;5029770;28;20545;-52
2022/03/10 10:51:32;;;;;;;21.93;15.50;;;10.80;99.90;;;;;;5032779;28;20571;-51
2022/03/10 10:54:00;;;;;;;25.10;16.73;;;10.90;99.90;;;;;;5027687;28;20477;-51
2022/03/10 10:56:30;;;;;;;23.37;17.03;;;11.10;99.90;;;;;;5040961;28;20465;-52
2022/03/10 10:58:57;;;;;;;27.73;16.97;;;10.80;99.90;;;;;;5031732;28;20463;-52
2022/03/10 11:01:28;;;;;;;21.97;15.70;;;10.40;99.90;;;;;;5033226;28;20509;-53
2022/03/10 11:03:56;;;;;;;22.10;16.77;;;10.80;99.90;;;;;;5051942;22;20501;-48
2022/03/10 11:06:24;;;;;;;21.13;16.10;;;10.50;99.90;;;;;;5045627;28;20541;-49
2022/03/10 11:08:53;;;;;;;31.27;18.67;;;10.30;99.90;;;;;;5048339;28;20498;-48
2022/03/10 11:11:20;;;;;;;23.27;17.30;;;9.80;99.90;;;;;;5052494;28;20505;-48
2022/03/10 11:13:47;;;;;;;25.03;16.33;;;10.00;99.90;;;;;;5051440;28;20858;-47
2022/03/10 11:16:15;;;;;;;22.70;16.80;;;10.10;99.90;;;;;;5051126;28;20493;-48
2022/03/10 11:18:42;;;;;;;20.33;17.13;;;10.10;99.90;;;;;;5052885;28;20473;-48
2022/03/10 11:21:15;;;;;;;24.97;18.70;;;9.90;99.90;;;;;;5052205;28;20458;-49
2022/03/10 11:23:53;;;;;;;24.20;17.70;;;10.20;99.90;;;;;;5046590;28;20514;-48
2022/03/10 11:26:27;;;;;;;22.43;17.63;;;9.40;99.90;;;;;;5044011;28;20467;-49
2022/03/10 11:28:56;;;;;;;23.67;19.30;;;9.10;99.90;;;;;;5043924;28;20538;-49
2022/03/10 11:31:24;;;;;;;19.57;16.80;;;9.10;99.90;;;;;;5047530;28;21181;-49
2022/03/10 11:33:51;;;;;;;28.97;17.47;;;9.20;99.90;;;;;;5053630;28;20465;-49
2022/03/10 11:36:23;;;;;;;24.80;17.97;;;9.20;99.90;;;;;;5052500;28;20452;-49
2022/03/10 11:38:52;;;;;;;22.40;17.97;;;9.30;99.90;;;;;;5049473;28;20442;-48
2022/03/10 11:41:18;;;;;;;21.67;17.17;;;9.10;99.90;;;;;;5051737;28;20484;-48
2022/03/10 11:43:58;;;;;;;18.37;13.60;;;9.00;99.90;;;;;;5050816;28;20474;-48
2022/03/10 11:46:27;;;;;;;17.00;14.77;;;8.80;99.90;;;;;;5045534;28;20476;-48
2022/03/10 11:49:06;;;;;;;21.53;15.13;;;9.10;99.90;;;;;;5043622;28;20544;-48
2022/03/10 11:51:44;;;;;;;17.70;14.97;;;9.30;99.90;;;;;;5045138;28;20581;-48
2022/03/10 11:54:12;;;;;;;18.03;14.57;;;9.40;99.90;;;;;;5051247;28;20565;-48
2022/03/10 11:57:06;;;;;;;20.50;15.30;;;9.70;99.90;;;;;;5047704;28;20545;-48
2022/03/10 11:59:47;;;;;;;16.80;14.40;;;9.70;99.90;;;;;;5046819;28;20553;-48
2022/03/10 12:02:31;;;;;;;18.00;14.63;;;9.70;99.90;;;;;;5044319;28;20991;-48
2022/03/10 12:04:58;;;;;;;18.80;15.33;;;9.60;99.90;;;;;;5043917;28;20571;-48
2022/03/10 12:07:28;;;;;;;18.50;14.37;;;9.70;99.90;;;;;;5043778;28;20462;-48
2022/03/10 12:10:02;;;;;;;18.00;14.17;;;9.30;99.90;;;;;;5043086;28;20535;-48
2022/03/10 12:12:29;;;;;;;16.53;13.90;;;9.00;99.90;;;;;;5045213;28;20505;-48
2022/03/10 12:14:57;;;;;;;20.50;14.60;;;9.00;99.90;;;;;;5049287;28;20461;-48
2022/03/10 12:17:52;;;;;;;17.23;15.10;;;8.50;99.90;;;;;;5049116;28;21010;-48
2022/03/10 12:20:20;;;;;;;14.53;12.00;;;8.60;99.90;;;;;;5047076;28;20495;-48
2022/03/10 12:23:10;;;;;;;17.90;12.87;;;8.90;99.90;;;;;;5049635;28;20482;-48
2022/03/10 12:25:39;;;;;;;14.20;12.83;;;9.00;99.90;;;;;;5045712;28;20461;-48
2022/03/10 12:28:06;;;;;;;15.07;13.53;;;8.90;99.90;;;;;;5051091;28;20967;-49
2022/03/10 12:30:41;;;;;;;20.83;12.90;;;9.20;99.90;;;;;;5052101;28;20454;-49
2022/03/10 12:33:08;;;;;;;15.63;13.10;;;9.40;99.90;;;;;;5051475;28;20524;-48
2022/03/10 12:35:36;;;;;;;16.97;13.37;;;9.40;99.90;;;;;;5050988;28;20899;-48
2022/03/10 12:38:03;;;;;;;25.13;13.10;;;9.60;99.90;;;;;;5051224;28;20466;-48
2022/03/10 12:40:33;;;;;;;20.53;13.50;;;9.30;99.90;;;;;;5050198;28;20462;-48